Time;durP1;ratioP1;P1;durP2;ratioP2;P2;SDS_P1;SDS_P2;PMS_P1;PMS_P2;Temp;Humidity;BMP_temperature;BMP_pressure;BME280_temperature;BME280_humidity;BME280_pressure;Samples;Min_cycle;Max_cycle;Signal;HPM_P1;HPM_P2
2023/12/01 00:02:25;;;;;;;23.95;21.35;;;1.20;99.90;;;;;;5063335;28;20415;-72
2023/12/01 00:04:53;;;;;;;21.92;19.52;;;1.20;99.90;;;;;;5064032;28;20514;-72
2023/12/01 00:07:20;;;;;;;23.00;20.45;;;1.10;99.90;;;;;;5064298;28;20438;-75
2023/12/01 00:09:47;;;;;;;22.20;19.83;;;1.10;99.90;;;;;;5063579;28;20412;-71
2023/12/01 00:12:14;;;;;;;22.55;20.25;;;1.00;99.90;;;;;;5061049;28;20430;-73
2023/12/01 00:14:41;;;;;;;22.00;19.60;;;1.00;99.90;;;;;;5063446;28;20407;-74
2023/12/01 00:17:08;;;;;;;21.23;18.92;;;0.90;99.90;;;;;;5064468;28;20716;-75
2023/12/01 00:19:34;;;;;;;19.83;17.73;;;0.90;99.90;;;;;;5062914;28;20411;-75
2023/12/01 00:22:02;;;;;;;21.30;18.70;;;0.80;99.90;;;;;;5060512;28;20505;-74
2023/12/01 00:24:29;;;;;;;21.60;19.00;;;0.80;99.90;;;;;;5060822;28;20433;-74
2023/12/01 00:26:56;;;;;;;23.05;19.55;;;0.80;99.90;;;;;;5064768;28;20412;-74
2023/12/01 00:29:23;;;;;;;22.80;20.20;;;0.70;99.90;;;;;;5065439;28;20416;-74
2023/12/01 00:31:49;;;;;;;22.30;19.90;;;0.70;99.90;;;;;;5059658;28;21170;-72
2023/12/01 00:34:16;;;;;;;22.52;19.85;;;0.60;99.90;;;;;;5064404;28;20415;-74
2023/12/01 00:36:43;;;;;;;21.63;19.33;;;0.60;99.90;;;;;;5063454;28;20537;-75
2023/12/01 00:39:11;;;;;;;22.08;19.67;;;0.60;99.90;;;;;;5058636;28;20427;-75
2023/12/01 00:41:37;;;;;;;23.40;19.55;;;0.50;99.90;;;;;;5058539;28;20416;-75
2023/12/01 00:44:04;;;;;;;22.30;19.08;;;0.50;99.90;;;;;;5058334;28;20526;-73
2023/12/01 00:46:31;;;;;;;23.15;19.95;;;0.40;99.90;;;;;;5060871;28;20578;-75
2023/12/01 00:48:58;;;;;;;23.55;20.80;;;0.40;99.90;;;;;;5059028;28;20419;-75
2023/12/01 00:51:24;;;;;;;24.17;21.00;;;0.40;99.90;;;;;;5061961;28;20436;-74
2023/12/01 00:53:51;;;;;;;24.08;20.05;;;0.30;99.90;;;;;;5064179;28;20434;-72
2023/12/01 00:56:19;;;;;;;23.52;20.00;;;0.30;99.90;;;;;;5063562;28;20530;-75
2023/12/01 00:58:46;;;;;;;25.65;21.48;;;0.30;99.90;;;;;;5057699;28;20426;-74
2023/12/01 01:01:14;;;;;;;25.55;21.52;;;0.30;99.90;;;;;;5069178;28;22472;-74
2023/12/01 01:03:42;;;;;;;25.77;20.92;;;0.30;99.90;;;;;;5068672;28;20442;-74
2023/12/01 01:06:10;;;;;;;25.00;20.95;;;0.30;99.90;;;;;;5062622;28;20431;-74
2023/12/01 01:08:37;;;;;;;27.88;22.25;;;0.30;99.90;;;;;;5062094;28;20783;-74
2023/12/01 01:11:04;;;;;;;28.55;23.65;;;0.30;99.90;;;;;;5059163;28;20415;-75
2023/12/01 01:13:33;;;;;;;31.73;25.17;;;0.30;99.90;;;;;;5061921;28;20420;-75
2023/12/01 01:16:00;;;;;;;32.42;23.35;;;0.40;99.90;;;;;;5052681;28;20538;-74
2023/12/01 01:18:27;;;;;;;33.25;25.10;;;0.40;99.90;;;;;;5053890;28;20788;-74
2023/12/01 01:20:54;;;;;;;32.40;24.53;;;0.40;99.90;;;;;;5056955;28;20435;-74
2023/12/01 01:23:20;;;;;;;32.65;24.95;;;0.40;99.90;;;;;;5063053;28;20415;-74
2023/12/01 01:25:47;;;;;;;36.38;26.92;;;0.40;99.90;;;;;;5061933;28;20443;-74
2023/12/01 01:28:14;;;;;;;36.95;28.08;;;0.40;99.90;;;;;;5060261;28;20780;-75
2023/12/01 01:30:42;;;;;;;36.30;26.52;;;0.40;99.90;;;;;;5057580;28;20431;-74
2023/12/01 01:33:09;;;;;;;33.67;26.30;;;0.50;99.90;;;;;;5056094;28;20420;-74
2023/12/01 01:35:36;;;;;;;33.90;25.75;;;0.50;99.90;;;;;;5060891;28;20482;-74
2023/12/01 01:38:02;;;;;;;38.30;27.77;;;0.50;99.90;;;;;;5063824;28;20488;-74
2023/12/01 01:40:29;;;;;;;37.65;28.38;;;0.60;99.90;;;;;;5060853;28;20467;-74
2023/12/01 01:42:56;;;;;;;36.22;27.05;;;0.60;99.90;;;;;;5062430;28;20418;-74
2023/12/01 01:45:22;;;;;;;38.50;28.20;;;0.60;99.90;;;;;;5061180;28;20427;-74
2023/12/01 01:47:52;;;;;;;33.60;26.33;;;0.70;99.90;;;;;;5062317;28;20443;-74
2023/12/01 01:50:22;;;;;;;37.30;27.33;;;0.70;99.90;;;;;;5058047;28;20419;-74
2023/12/01 01:52:50;;;;;;;39.53;27.60;;;0.70;99.90;;;;;;5055178;28;20469;-75
2023/12/01 01:55:17;;;;;;;37.30;27.15;;;0.80;99.90;;;;;;5063017;28;20415;-74
2023/12/01 01:57:45;;;;;;;35.85;26.30;;;0.80;99.90;;;;;;5060448;28;20415;-75
2023/12/01 02:00:16;;;;;;;36.30;27.13;;;0.80;99.90;;;;;;5061311;28;20847;-74
2023/12/01 02:02:43;;;;;;;35.97;27.08;;;0.90;99.90;;;;;;5054327;28;20959;-74
2023/12/01 02:05:13;;;;;;;37.25;27.20;;;0.90;99.90;;;;;;5059664;28;20441;-75
2023/12/01 02:07:41;;;;;;;35.85;26.83;;;0.90;99.90;;;;;;5062430;28;20844;-74
2023/12/01 02:10:15;;;;;;;37.40;27.13;;;1.00;99.90;;;;;;5068345;28;20913;-74
2023/12/01 02:12:43;;;;;;;36.72;26.70;;;0.90;99.90;;;;;;5063699;28;20515;-74
2023/12/01 02:15:10;;;;;;;35.40;27.85;;;1.00;99.90;;;;;;5063980;28;20412;-74
2023/12/01 02:17:38;;;;;;;36.42;27.25;;;1.00;99.90;;;;;;5066838;28;20416;-75
2023/12/01 02:20:06;;;;;;;36.25;26.88;;;1.00;99.90;;;;;;5065962;28;20546;-74
2023/12/01 02:22:34;;;;;;;35.72;26.45;;;1.00;99.90;;;;;;5068581;28;20504;-74
2023/12/01 02:25:01;;;;;;;33.65;24.80;;;1.00;99.90;;;;;;5065672;28;20751;-74
2023/12/01 02:27:28;;;;;;;33.58;24.55;;;1.00;99.90;;;;;;5066094;28;20438;-74
2023/12/01 02:29:55;;;;;;;30.80;24.00;;;1.00;99.90;;;;;;5060518;28;20439;-74
2023/12/01 02:32:22;;;;;;;35.85;25.80;;;1.10;99.90;;;;;;5059858;28;20426;-75
2023/12/01 02:34:49;;;;;;;34.10;24.63;;;1.10;99.90;;;;;;5058123;28;20432;-74
2023/12/01 02:37:16;;;;;;;32.75;25.35;;;1.10;99.90;;;;;;5063820;28;20431;-74
2023/12/01 02:39:44;;;;;;;33.00;25.15;;;1.10;99.90;;;;;;5057790;28;20799;-74
2023/12/01 02:42:10;;;;;;;27.42;22.10;;;1.10;99.90;;;;;;5063327;28;20423;-74
2023/12/01 02:44:37;;;;;;;28.13;22.30;;;1.10;99.90;;;;;;5057499;28;20454;-74
2023/12/01 02:47:04;;;;;;;26.77;22.27;;;1.10;99.90;;;;;;5065746;28;20416;-74
2023/12/01 02:49:31;;;;;;;27.05;22.15;;;1.10;99.90;;;;;;5060090;28;20415;-74
2023/12/01 02:51:57;;;;;;;27.02;21.80;;;1.10;99.90;;;;;;5062142;28;20445;-75
2023/12/01 02:54:24;;;;;;;25.13;20.77;;;1.00;99.90;;;;;;5064019;28;20683;-74
2023/12/01 02:56:52;;;;;;;24.00;20.08;;;1.00;99.90;;;;;;5061480;28;20847;-74
2023/12/01 02:59:19;;;;;;;23.73;19.97;;;1.00;99.90;;;;;;5050422;28;20485;-74
2023/12/01 03:01:46;;;;;;;23.80;19.88;;;0.90;99.90;;;;;;5064911;28;20412;-74
2023/12/01 03:04:13;;;;;;;24.67;20.20;;;0.90;99.90;;;;;;5063388;28;20416;-74
2023/12/01 03:06:39;;;;;;;22.67;18.70;;;0.80;99.90;;;;;;5064917;28;20925;-74
2023/12/01 03:09:16;;;;;;;25.08;20.13;;;0.80;99.90;;;;;;5066261;28;20510;-74
2023/12/01 03:11:43;;;;;;;24.43;19.73;;;0.70;99.90;;;;;;5061375;28;20450;-75
2023/12/01 03:14:12;;;;;;;25.45;20.88;;;0.70;99.90;;;;;;5063479;28;20416;-74
2023/12/01 03:16:38;;;;;;;25.33;20.30;;;0.70;99.90;;;;;;5057011;28;20407;-74
2023/12/01 03:19:08;;;;;;;25.77;20.45;;;0.70;99.90;;;;;;5062640;28;20438;-75
2023/12/01 03:21:35;;;;;;;25.50;19.73;;;0.70;99.90;;;;;;5063620;28;20620;-75
2023/12/01 03:24:02;;;;;;;24.33;18.98;;;0.70;99.90;;;;;;5064811;28;20415;-75
2023/12/01 03:26:29;;;;;;;24.50;19.90;;;0.60;99.90;;;;;;5061998;28;20799;-75
2023/12/01 03:28:55;;;;;;;23.92;19.50;;;0.60;99.90;;;;;;5064803;28;20751;-74
2023/12/01 03:31:24;;;;;;;21.57;17.30;;;0.50;99.90;;;;;;5060973;28;20420;-75
2023/12/01 03:33:50;;;;;;;23.17;18.52;;;0.50;99.90;;;;;;5064507;28;20420;-74
2023/12/01 03:36:17;;;;;;;25.27;19.50;;;0.50;99.90;;;;;;5059080;28;20514;-74
2023/12/01 03:38:44;;;;;;;23.50;18.63;;;0.50;99.90;;;;;;5065195;28;20539;-75
2023/12/01 03:41:10;;;;;;;24.88;19.25;;;0.50;99.90;;;;;;5055580;28;20754;-75
2023/12/01 03:43:37;;;;;;;23.90;19.20;;;0.50;99.90;;;;;;5058438;28;20419;-74
2023/12/01 03:46:04;;;;;;;23.35;19.88;;;0.50;99.90;;;;;;5057361;28;20428;-75
2023/12/01 03:48:33;;;;;;;24.10;19.33;;;0.50;99.90;;;;;;5064108;28;20422;-74
2023/12/01 03:50:59;;;;;;;25.63;19.42;;;0.50;99.90;;;;;;5059140;28;20411;-74
2023/12/01 03:53:26;;;;;;;25.50;20.13;;;0.50;99.90;;;;;;5062326;28;20431;-75
2023/12/01 03:55:54;;;;;;;26.40;20.77;;;0.50;99.90;;;;;;5060566;28;20429;-75
2023/12/01 03:58:24;;;;;;;26.50;21.10;;;0.50;99.90;;;;;;5058329;28;20512;-75
2023/12/01 04:00:52;;;;;;;24.95;19.13;;;0.50;99.90;;;;;;5064572;28;20433;-75
2023/12/01 04:03:19;;;;;;;25.88;19.42;;;0.50;99.90;;;;;;5062136;28;20439;-75
2023/12/01 04:05:47;;;;;;;26.27;20.67;;;0.50;99.90;;;;;;5061838;28;20427;-74
2023/12/01 04:08:14;;;;;;;26.52;20.33;;;0.50;99.90;;;;;;5054294;28;20440;-75
2023/12/01 04:10:41;;;;;;;25.40;20.65;;;0.50;99.90;;;;;;5064240;28;20545;-75
2023/12/01 04:13:08;;;;;;;24.88;20.65;;;0.50;99.90;;;;;;5073691;28;20431;-75
2023/12/01 04:15:36;;;;;;;26.23;21.20;;;0.50;99.90;;;;;;5060054;28;20477;-74
2023/12/01 04:18:06;;;;;;;26.50;21.23;;;0.50;99.90;;;;;;5057765;28;20531;-75
2023/12/01 04:20:36;;;;;;;24.30;19.45;;;0.50;99.90;;;;;;5062708;28;20475;-75
2023/12/01 04:23:09;;;;;;;28.00;21.50;;;0.50;99.90;;;;;;5062888;28;20428;-75
2023/12/01 04:25:36;;;;;;;27.40;20.92;;;0.50;99.90;;;;;;5064132;28;20424;-75
2023/12/01 04:28:03;;;;;;;26.27;21.05;;;0.40;99.90;;;;;;5063714;28;20759;-75
2023/12/01 04:30:30;;;;;;;25.13;20.35;;;0.40;99.90;;;;;;5063342;28;20426;-75
2023/12/01 04:32:59;;;;;;;24.63;19.92;;;0.40;99.90;;;;;;5061467;28;20430;-73
2023/12/01 04:35:28;;;;;;;23.38;18.90;;;0.30;99.90;;;;;;5064653;28;20901;-74
2023/12/01 04:37:55;;;;;;;26.60;20.50;;;0.30;99.90;;;;;;5062582;28;20433;-75
2023/12/01 04:40:24;;;;;;;24.83;19.60;;;0.30;99.90;;;;;;5064677;28;20710;-74
2023/12/01 04:42:52;;;;;;;23.58;19.70;;;0.40;99.90;;;;;;5063673;28;20828;-74
2023/12/01 04:45:20;;;;;;;26.23;20.02;;;0.30;99.90;;;;;;5061141;28;20408;-73
2023/12/01 04:47:50;;;;;;;24.77;19.40;;;0.30;99.90;;;;;;5059608;28;20791;-73
2023/12/01 04:50:18;;;;;;;25.92;20.42;;;0.30;99.90;;;;;;5065464;28;20412;-74
2023/12/01 04:52:45;;;;;;;26.08;20.65;;;0.30;99.90;;;;;;5063428;28;20533;-73
2023/12/01 04:55:14;;;;;;;25.55;20.25;;;0.40;99.90;;;;;;5067430;28;20445;-74
2023/12/01 04:57:43;;;;;;;24.02;19.95;;;0.40;99.90;;;;;;5062731;28;20479;-74
2023/12/01 05:00:19;;;;;;;27.63;21.08;;;0.50;99.90;;;;;;5058300;28;20572;-74
2023/12/01 05:02:48;;;;;;;21.87;18.80;;;0.50;99.90;;;;;;5055682;28;20484;-75
2023/12/01 05:05:15;;;;;;;22.52;18.42;;;0.50;99.90;;;;;;5054677;28;20523;-76
2023/12/01 05:07:43;;;;;;;23.90;18.83;;;0.50;99.90;;;;;;5061537;28;20411;-74
2023/12/01 05:10:14;;;;;;;25.70;19.90;;;0.50;99.90;;;;;;5060809;28;20439;-74
2023/12/01 05:12:43;;;;;;;22.23;18.15;;;0.50;99.90;;;;;;5056282;28;20412;-75
2023/12/01 05:15:15;;;;;;;23.17;19.08;;;0.50;99.90;;;;;;5061771;28;20419;-74
2023/12/01 05:17:43;;;;;;;24.27;17.80;;;0.60;99.90;;;;;;5059074;28;20452;-73
2023/12/01 05:20:15;;;;;;;22.85;19.23;;;0.60;99.90;;;;;;5062898;28;20435;-74
2023/12/01 05:22:43;;;;;;;20.48;17.40;;;0.60;99.90;;;;;;5062311;28;20801;-74
2023/12/01 05:25:13;;;;;;;20.63;17.10;;;0.60;99.90;;;;;;5062172;28;20905;-75
2023/12/01 05:27:46;;;;;;;22.05;17.98;;;0.60;99.90;;;;;;5057263;28;20426;-74
2023/12/01 05:30:13;;;;;;;22.38;18.25;;;0.50;99.90;;;;;;5058883;28;20423;-74
2023/12/01 05:32:41;;;;;;;20.23;16.40;;;0.60;99.90;;;;;;5073420;28;20412;-74
2023/12/01 05:35:11;;;;;;;21.08;17.88;;;0.60;99.90;;;;;;5070316;28;20415;-74
2023/12/01 05:37:39;;;;;;;21.00;17.50;;;0.60;99.90;;;;;;5072448;28;20444;-75
2023/12/01 05:40:08;;;;;;;20.38;17.42;;;0.60;99.90;;;;;;5067043;28;20413;-75
2023/12/01 05:42:35;;;;;;;22.40;18.10;;;0.60;99.90;;;;;;5062613;28;20447;-76
2023/12/01 05:45:04;;;;;;;20.70;17.70;;;0.60;99.90;;;;;;5065795;28;20480;-75
2023/12/01 05:47:31;;;;;;;21.23;18.10;;;0.60;99.90;;;;;;5077315;28;20457;-75
2023/12/01 05:49:58;;;;;;;21.70;18.52;;;0.60;99.90;;;;;;5077607;28;20407;-75
2023/12/01 05:52:25;;;;;;;24.48;18.10;;;0.60;99.90;;;;;;5069370;28;20431;-74
2023/12/01 05:54:52;;;;;;;23.25;18.25;;;0.60;99.90;;;;;;5067221;28;20407;-75
2023/12/01 05:57:19;;;;;;;19.45;16.58;;;0.70;99.90;;;;;;5065685;28;20412;-75
2023/12/01 05:59:46;;;;;;;19.50;16.92;;;0.70;99.90;;;;;;5066473;28;20415;-75
2023/12/01 06:02:14;;;;;;;19.30;16.30;;;0.70;99.90;;;;;;5066410;28;20479;-75
2023/12/01 06:04:41;;;;;;;19.48;17.33;;;0.70;99.90;;;;;;5070475;28;20423;-75
2023/12/01 06:07:07;;;;;;;17.95;15.90;;;0.70;99.90;;;;;;5060672;28;20437;-75
2023/12/01 06:09:35;;;;;;;19.25;15.95;;;0.70;99.90;;;;;;5063649;28;20489;-75
2023/12/01 06:12:03;;;;;;;20.13;17.20;;;0.70;99.90;;;;;;5059334;28;20835;-75
2023/12/01 06:14:30;;;;;;;19.13;16.80;;;0.60;99.90;;;;;;5062760;28;20419;-75
2023/12/01 06:16:56;;;;;;;20.77;16.65;;;0.70;99.90;;;;;;5062116;28;20501;-75
2023/12/01 06:19:26;;;;;;;21.75;17.35;;;0.70;99.90;;;;;;5068446;28;20802;-75
2023/12/01 06:21:52;;;;;;;19.58;16.67;;;0.70;99.90;;;;;;5065874;28;20460;-74
2023/12/01 06:24:21;;;;;;;18.52;15.70;;;0.70;99.90;;;;;;5067217;28;20408;-75
2023/12/01 06:26:48;;;;;;;18.30;15.43;;;0.70;99.90;;;;;;5063628;28;20463;-75
2023/12/01 06:29:16;;;;;;;19.00;15.57;;;0.70;99.90;;;;;;5066983;28;20511;-74
2023/12/01 06:31:43;;;;;;;18.47;15.90;;;0.70;99.90;;;;;;5063682;28;20434;-75
2023/12/01 06:34:09;;;;;;;18.88;15.93;;;0.70;99.90;;;;;;5055789;28;20522;-74
2023/12/01 06:36:37;;;;;;;17.48;14.95;;;0.70;99.90;;;;;;5067229;28;20415;-75
2023/12/01 06:39:10;;;;;;;17.30;14.40;;;0.70;99.90;;;;;;5065113;28;20513;-74
2023/12/01 06:41:37;;;;;;;17.70;15.48;;;0.70;99.90;;;;;;5065461;28;20469;-74
2023/12/01 06:44:04;;;;;;;13.35;11.95;;;0.70;99.90;;;;;;5066217;28;20738;-75
2023/12/01 06:46:31;;;;;;;13.27;11.88;;;0.70;99.90;;;;;;5062955;28;20436;-74
2023/12/01 06:48:58;;;;;;;12.77;10.93;;;0.70;99.90;;;;;;5056041;28;20501;-75
2023/12/01 06:51:25;;;;;;;14.32;12.15;;;0.60;99.90;;;;;;5062883;28;20552;-75
2023/12/01 06:53:55;;;;;;;14.32;11.68;;;0.70;99.90;;;;;;5062903;28;20500;-74
2023/12/01 06:56:22;;;;;;;12.80;11.40;;;0.70;99.90;;;;;;5064668;28;20825;-75
2023/12/01 06:58:49;;;;;;;13.68;11.95;;;0.70;99.90;;;;;;5063220;28;20435;-75
2023/12/01 07:01:18;;;;;;;11.55;10.15;;;0.70;99.90;;;;;;5059365;28;20425;-75
2023/12/01 07:03:45;;;;;;;12.00;10.27;;;0.70;99.90;;;;;;5056135;28;20434;-74
2023/12/01 07:06:12;;;;;;;13.93;10.93;;;0.70;99.90;;;;;;5066200;28;20435;-76
2023/12/01 07:08:40;;;;;;;12.43;11.00;;;0.70;99.90;;;;;;5062591;28;20908;-76
2023/12/01 07:11:08;;;;;;;13.20;11.70;;;0.80;99.90;;;;;;5065721;28;20419;-75
2023/12/01 07:13:35;;;;;;;14.50;12.48;;;0.80;99.90;;;;;;5064980;28;20785;-76
2023/12/01 07:16:09;;;;;;;13.45;11.55;;;0.80;99.90;;;;;;5057610;28;20755;-76
2023/12/01 07:18:37;;;;;;;15.05;12.45;;;0.80;99.90;;;;;;5060752;28;20740;-75
2023/12/01 07:21:06;;;;;;;15.50;12.10;;;0.80;99.90;;;;;;5060690;28;20415;-75
2023/12/01 07:23:33;;;;;;;11.00;9.35;;;0.80;99.90;;;;;;5067056;28;20419;-75
2023/12/01 07:26:00;;;;;;;12.90;11.00;;;0.80;99.90;;;;;;5063450;28;20439;-74
2023/12/01 07:28:29;;;;;;;11.55;10.07;;;0.70;99.90;;;;;;5066493;28;20427;-74
2023/12/01 07:30:56;;;;;;;12.65;11.00;;;0.70;99.90;;;;;;5064111;28;20892;-74
2023/12/01 07:33:22;;;;;;;11.68;9.90;;;0.80;99.90;;;;;;5062230;28;20443;-75
2023/12/01 07:35:49;;;;;;;11.83;10.10;;;0.80;99.90;;;;;;5064749;28;20414;-74
2023/12/01 07:38:16;;;;;;;11.25;10.05;;;0.80;99.90;;;;;;5065254;28;20898;-74
2023/12/01 07:40:44;;;;;;;11.47;9.93;;;0.80;99.90;;;;;;5063584;28;20427;-74
2023/12/01 07:43:11;;;;;;;10.18;9.00;;;0.80;99.90;;;;;;5065747;28;20916;-72
2023/12/01 07:45:39;;;;;;;10.82;9.73;;;0.80;99.90;;;;;;5065637;28;20412;-71
2023/12/01 07:48:09;;;;;;;11.70;9.63;;;0.80;99.90;;;;;;5059410;28;20513;-75
2023/12/01 07:50:36;;;;;;;12.40;10.18;;;0.80;99.90;;;;;;5063612;28;20871;-72
2023/12/01 07:53:04;;;;;;;11.60;10.20;;;0.90;99.90;;;;;;5064895;28;20783;-72
2023/12/01 07:55:31;;;;;;;12.18;9.90;;;0.90;99.90;;;;;;5064690;28;20412;-72
2023/12/01 07:57:58;;;;;;;11.63;10.40;;;1.00;99.90;;;;;;5064099;28;20496;-71
2023/12/01 08:00:25;;;;;;;11.82;9.77;;;1.00;99.90;;;;;;5061371;28;20407;-71
2023/12/01 08:02:56;;;;;;;10.40;9.13;;;1.00;99.90;;;;;;5061643;28;20799;-72
2023/12/01 08:05:23;;;;;;;10.63;9.35;;;1.00;99.90;;;;;;5064235;28;20441;-71
2023/12/01 08:07:51;;;;;;;10.88;8.93;;;1.00;99.90;;;;;;5062238;28;20890;-72
2023/12/01 08:10:18;;;;;;;10.52;9.25;;;1.00;99.90;;;;;;5062285;28;20956;-72
2023/12/01 08:12:46;;;;;;;10.80;9.60;;;1.00;99.90;;;;;;5064538;28;20515;-71
2023/12/01 08:15:13;;;;;;;10.25;9.15;;;1.00;99.90;;;;;;5065129;28;20416;-71
2023/12/01 08:17:40;;;;;;;10.73;9.07;;;1.00;99.90;;;;;;5056343;28;20861;-71
2023/12/01 08:20:10;;;;;;;9.77;8.38;;;1.00;99.90;;;;;;5056446;28;20409;-71
2023/12/01 08:22:38;;;;;;;10.52;8.65;;;1.00;99.90;;;;;;5068626;28;20467;-71
2023/12/01 08:25:06;;;;;;;11.27;8.70;;;1.00;99.90;;;;;;5059343;28;20412;-77
2023/12/01 08:27:34;;;;;;;9.65;7.85;;;1.00;99.90;;;;;;5063040;28;20495;-73
2023/12/01 08:30:02;;;;;;;11.63;8.75;;;1.00;99.90;;;;;;5065204;28;20461;-72
2023/12/01 08:32:28;;;;;;;9.27;7.60;;;1.00;99.90;;;;;;5058135;28;20460;-73
2023/12/01 08:34:55;;;;;;;12.53;8.30;;;1.00;99.90;;;;;;5064139;28;20482;-73
2023/12/01 08:37:23;;;;;;;9.20;8.00;;;1.00;99.90;;;;;;5062881;28;20486;-74
2023/12/01 08:39:50;;;;;;;10.27;8.25;;;0.90;99.90;;;;;;5065568;28;20435;-73
2023/12/01 08:42:18;;;;;;;9.35;8.18;;;0.90;99.90;;;;;;5064311;28;20782;-72
2023/12/01 08:44:44;;;;;;;9.25;8.10;;;0.90;99.90;;;;;;5052457;28;20458;-73
2023/12/01 08:47:13;;;;;;;8.85;7.95;;;0.90;99.90;;;;;;5054173;28;20768;-71
2023/12/01 08:49:40;;;;;;;8.85;7.95;;;0.80;99.90;;;;;;5064093;28;20435;-73
2023/12/01 08:52:07;;;;;;;9.52;7.90;;;0.80;99.90;;;;;;5061054;28;20492;-73
2023/12/01 08:54:35;;;;;;;9.82;8.30;;;0.80;99.90;;;;;;5063215;28;20439;-72
2023/12/01 08:57:02;;;;;;;9.43;8.40;;;0.70;99.90;;;;;;5058670;28;20453;-73
2023/12/01 08:59:29;;;;;;;9.90;8.60;;;0.70;99.90;;;;;;5061081;28;20417;-73
2023/12/01 09:01:56;;;;;;;8.90;8.00;;;0.70;99.90;;;;;;5057656;28;20464;-73
2023/12/01 09:04:22;;;;;;;8.70;7.80;;;0.70;99.90;;;;;;5061969;28;20419;-73
2023/12/01 09:06:49;;;;;;;8.00;7.10;;;0.70;99.90;;;;;;5060556;28;20411;-73
2023/12/01 09:09:16;;;;;;;9.70;7.80;;;0.60;99.90;;;;;;5064445;28;20425;-67
2023/12/01 09:11:44;;;;;;;8.00;6.70;;;0.70;99.90;;;;;;5057293;28;20495;-71
2023/12/01 09:14:11;;;;;;;7.85;5.90;;;0.70;99.90;;;;;;5056929;28;20448;-72
2023/12/01 09:16:38;;;;;;;6.93;5.75;;;0.70;99.90;;;;;;5066156;28;20439;-72
2023/12/01 09:19:05;;;;;;;5.77;5.10;;;0.70;99.90;;;;;;5066051;28;20490;-70
2023/12/01 09:21:31;;;;;;;6.03;4.90;;;0.70;99.90;;;;;;5062543;28;20425;-72
2023/12/01 09:23:58;;;;;;;5.38;4.88;;;0.70;99.90;;;;;;5064841;28;20806;-72
2023/12/01 09:26:25;;;;;;;5.47;4.97;;;0.70;99.90;;;;;;5078191;28;20487;-72
2023/12/01 09:28:53;;;;;;;5.65;4.75;;;0.70;99.90;;;;;;5068078;28;20447;-72
2023/12/01 09:31:21;;;;;;;6.17;4.80;;;0.70;99.90;;;;;;5076773;28;20446;-72
2023/12/01 09:33:48;;;;;;;6.97;5.60;;;0.70;99.90;;;;;;5084252;28;20529;-72
2023/12/01 09:36:17;;;;;;;6.05;5.45;;;0.70;99.90;;;;;;5083122;28;20431;-72
2023/12/01 09:38:43;;;;;;;7.10;6.10;;;0.70;99.90;;;;;;5068773;28;20419;-71
2023/12/01 09:41:10;;;;;;;6.70;5.33;;;0.70;99.90;;;;;;5075519;28;20424;-72
2023/12/01 09:43:38;;;;;;;6.78;5.82;;;0.70;99.90;;;;;;5080220;28;21158;-71
2023/12/01 09:46:07;;;;;;;7.55;6.45;;;0.70;99.90;;;;;;5076826;28;20533;-71
2023/12/01 09:48:35;;;;;;;6.82;5.93;;;0.70;99.90;;;;;;5066518;28;20431;-72
2023/12/01 09:51:03;;;;;;;7.82;7.03;;;0.70;99.90;;;;;;5063843;28;20473;-71
2023/12/01 09:53:30;;;;;;;7.90;6.70;;;0.80;99.90;;;;;;5059427;28;20445;-72
2023/12/01 09:55:57;;;;;;;8.43;6.88;;;0.80;99.90;;;;;;5063973;28;20422;-71
2023/12/01 09:58:28;;;;;;;8.00;6.90;;;0.80;99.90;;;;;;5062836;28;20417;-72
2023/12/01 10:00:56;;;;;;;7.53;6.72;;;0.80;99.90;;;;;;5059312;28;20523;-72
2023/12/01 10:03:24;;;;;;;7.80;6.30;;;0.90;99.90;;;;;;5064871;28;20419;-71
2023/12/01 10:05:51;;;;;;;7.50;6.45;;;0.90;99.90;;;;;;5058193;28;20435;-71
2023/12/01 10:08:17;;;;;;;7.23;6.17;;;0.90;99.90;;;;;;5061237;28;20545;-72
2023/12/01 10:10:45;;;;;;;7.07;5.90;;;0.90;99.90;;;;;;5080053;22;20418;-67
2023/12/01 10:13:12;;;;;;;9.82;8.30;;;0.80;99.90;;;;;;5059353;28;20447;-67
2023/12/01 10:15:39;;;;;;;7.50;6.70;;;0.80;99.90;;;;;;5062029;28;20910;-67
2023/12/01 10:18:11;;;;;;;8.60;7.32;;;0.80;99.90;;;;;;5054595;28;20416;-67
2023/12/01 10:20:40;;;;;;;11.88;9.40;;;0.80;99.90;;;;;;5058223;28;20498;-67
2023/12/01 10:23:20;;;;;;;7.65;6.85;;;0.80;99.90;;;;;;5063638;28;20705;-68
2023/12/01 10:25:50;;;;;;;8.57;7.68;;;0.80;99.90;;;;;;5060471;28;20427;-66
2023/12/01 10:28:17;;;;;;;8.07;7.28;;;0.80;99.90;;;;;;5065416;28;20427;-67
2023/12/01 10:30:53;;;;;;;7.85;7.05;;;0.80;99.90;;;;;;5064424;28;20778;-67
2023/12/01 10:33:21;;;;;;;9.18;7.70;;;0.80;99.90;;;;;;5067564;28;20963;-67
2023/12/01 10:36:01;;;;;;;8.00;7.20;;;0.80;99.90;;;;;;5067976;28;20423;-67
2023/12/01 10:38:28;;;;;;;7.45;6.75;;;0.80;99.90;;;;;;5065237;28;20842;-67
2023/12/01 10:40:55;;;;;;;7.40;6.70;;;0.80;99.90;;;;;;5064953;28;20425;-67
2023/12/01 10:43:22;;;;;;;8.18;7.28;;;0.80;99.90;;;;;;5067644;28;20472;-67
2023/12/01 10:45:50;;;;;;;8.57;6.80;;;0.80;99.90;;;;;;5068961;28;20412;-67
2023/12/01 10:48:19;;;;;;;7.60;6.78;;;0.80;99.90;;;;;;5070292;28;20438;-67
2023/12/01 10:50:47;;;;;;;8.10;6.80;;;0.80;99.90;;;;;;5063210;28;20415;-67
2023/12/01 10:53:16;;;;;;;6.90;6.20;;;0.80;99.90;;;;;;5066790;28;20565;-68
2023/12/01 10:55:46;;;;;;;7.65;6.50;;;0.70;99.90;;;;;;5059421;28;20427;-67
2023/12/01 10:58:20;;;;;;;7.77;6.70;;;0.70;99.90;;;;;;5063073;28;20427;-67
2023/12/01 11:00:48;;;;;;;7.15;6.35;;;0.70;99.90;;;;;;5058140;28;20415;-67
2023/12/01 11:03:19;;;;;;;7.70;6.90;;;0.70;99.90;;;;;;5067559;28;20439;-67
2023/12/01 11:05:49;;;;;;;7.97;7.10;;;0.70;99.90;;;;;;5061555;28;20419;-67
2023/12/01 11:08:40;;;;;;;7.00;6.30;;;0.70;99.90;;;;;;5067657;28;20424;-67
2023/12/01 11:11:17;;;;;;;8.05;6.30;;;0.80;99.90;;;;;;5066013;28;20431;-67
2023/12/01 11:14:03;;;;;;;7.03;6.32;;;0.80;99.90;;;;;;5064790;28;20748;-67
2023/12/01 11:16:31;;;;;;;8.35;6.00;;;0.90;99.90;;;;;;5061552;28;20411;-67
2023/12/01 11:18:59;;;;;;;7.28;6.50;;;1.00;99.90;;;;;;5063640;28;20447;-68
2023/12/01 11:21:26;;;;;;;6.38;5.70;;;1.00;99.90;;;;;;5068713;28;20430;-68
2023/12/01 11:23:54;;;;;;;6.20;5.60;;;1.10;99.90;;;;;;5069449;28;20419;-67
2023/12/01 11:26:26;;;;;;;11.05;7.35;;;1.10;99.90;;;;;;5061616;28;20429;-67
2023/12/01 11:29:09;;;;;;;6.05;5.43;;;1.20;99.90;;;;;;5069283;28;20431;-67
2023/12/01 11:31:50;;;;;;;7.20;6.45;;;1.20;99.90;;;;;;5063272;28;20850;-68
2023/12/01 11:34:19;;;;;;;6.60;6.00;;;1.20;99.90;;;;;;5068320;28;20415;-67
2023/12/01 11:36:49;;;;;;;8.48;5.93;;;1.30;99.90;;;;;;5067433;28;20428;-67
2023/12/01 11:39:20;;;;;;;6.80;6.10;;;1.30;99.90;;;;;;5066945;28;20412;-66
2023/12/01 11:41:51;;;;;;;6.67;6.00;;;1.40;99.90;;;;;;5068753;28;20492;-66
2023/12/01 11:44:23;;;;;;;6.90;6.20;;;1.40;99.90;;;;;;5064829;28;20494;-67
2023/12/01 11:46:55;;;;;;;7.88;5.85;;;1.40;99.90;;;;;;5063413;28;20406;-67
2023/12/01 11:49:26;;;;;;;6.38;5.68;;;1.50;99.90;;;;;;5063738;28;20427;-66
2023/12/01 11:51:53;;;;;;;7.10;6.40;;;1.50;99.90;;;;;;5067374;28;20438;-67
2023/12/01 11:54:21;;;;;;;5.80;5.20;;;1.50;99.90;;;;;;5068399;28;20415;-67
2023/12/01 11:56:50;;;;;;;5.60;5.07;;;1.50;99.90;;;;;;5064149;28;20411;-67
2023/12/01 11:59:17;;;;;;;6.60;5.00;;;1.50;99.90;;;;;;5066906;28;20473;-67
2023/12/01 12:01:44;;;;;;;6.97;5.72;;;1.50;99.90;;;;;;5060943;28;20415;-66
2023/12/01 12:04:13;;;;;;;6.43;5.72;;;1.50;99.90;;;;;;5062854;28;20412;-66
2023/12/01 12:06:41;;;;;;;6.40;5.80;;;1.50;99.90;;;;;;5059642;28;20617;-66
2023/12/01 12:09:08;;;;;;;6.40;5.80;;;1.50;99.90;;;;;;5065805;28;20424;-67
2023/12/01 12:11:37;;;;;;;6.38;5.78;;;1.50;99.90;;;;;;5066835;28;20431;-66
2023/12/01 12:14:05;;;;;;;6.53;5.82;;;1.50;99.90;;;;;;5065462;28;20438;-67
2023/12/01 12:16:32;;;;;;;6.60;6.00;;;1.40;99.90;;;;;;5060922;28;20411;-66
2023/12/01 12:18:59;;;;;;;6.80;6.20;;;1.40;99.90;;;;;;5063122;28;20412;-67
2023/12/01 12:21:27;;;;;;;7.85;6.63;;;1.40;99.90;;;;;;5064330;28;20435;-66
2023/12/01 12:23:54;;;;;;;7.57;6.38;;;1.40;99.90;;;;;;5068112;28;20438;-66
2023/12/01 12:26:24;;;;;;;6.40;5.80;;;1.40;99.90;;;;;;5066017;28;20438;-66
2023/12/01 12:28:53;;;;;;;7.78;6.32;;;1.30;99.90;;;;;;5068466;28;20431;-67
2023/12/01 12:31:20;;;;;;;7.65;6.95;;;1.30;99.90;;;;;;5064147;28;20421;-67
2023/12/01 12:33:49;;;;;;;7.20;6.50;;;1.30;99.90;;;;;;5060913;28;20408;-67
2023/12/01 12:36:16;;;;;;;7.60;6.80;;;1.30;99.90;;;;;;5063328;28;20986;-66
2023/12/01 12:38:43;;;;;;;7.57;6.88;;;1.40;99.90;;;;;;5066496;28;20935;-67
2023/12/01 12:41:27;;;;;;;7.50;6.80;;;1.40;99.90;;;;;;5061424;28;20434;-67
2023/12/01 12:43:56;;;;;;;8.45;6.72;;;1.40;99.90;;;;;;5067271;28;20432;-67
2023/12/01 12:46:23;;;;;;;8.82;6.68;;;1.40;99.90;;;;;;5065763;28;20883;-67
2023/12/01 12:48:51;;;;;;;7.40;6.60;;;1.50;99.90;;;;;;5060904;28;20427;-67